Accueil
METAR-TAF:

METAR-TAF

Aéroports :

Aérodrome de Kaolack

Kaolack, Sénégal

latitude: 14-08N, longitude: 016-04W, altitude: 6 m

Observation

Le bulletin a été fait il y a 1 heure et 33 minutes, à 12:00 UTC
Vent 6 kt de ouest
Température 29°C
Humidité 70%
Pression 1012 hPa
Visibilité 10 km ou plus
Nuages fragmentés à une hauteur de 1300 ft
Nuages épars à une hauteur de 1500 ft

METAR: GOOK 131200Z 28006KT 9999 BKN013 SCT015 29/23 Q1012

Heure: 13:33 (13:33 UTC)


TAF: absent

Observations et prévisions météorologiques de plus de 4000 aéroports (messages METAR et TAF).

Les stations disponibles sont représentées par des disques jaunes et rouges sur la carte.

Passer la souris dessus pour voir le nom de la station.

Cliquer dessus pour voir les observations et prévisions météorologiques.

Pour changer de carte: cliquez sur les boutons verts avec une croix noire pour zoomer, sur le bouton vert avec un tiret pour effectuer un zoom arrière, ou sur les flèches vertes pour les cartes adjacentes.


METAR-TAF: